Time;durP1;ratioP1;P1;durP2;ratioP2;P2;SDS_P1;SDS_P2;PMS_P1;PMS_P2;Temp;Humidity;BMP_temperature;BMP_pressure;BME280_temperature;BME280_humidity;BME280_pressure;Samples;Min_cycle;Max_cycle;Signal;HPM_P1;HPM_P2
2023/02/16 00:01:42;;;;;;;2.05;1.40;;;21.10;47.70;;;;;;5018162;28;20877;-64
2023/02/16 00:04:18;;;;;;;2.40;1.40;;;21.10;47.70;;;;;;5018792;28;20033;-64
2023/02/16 00:06:43;;;;;;;1.75;1.30;;;21.00;47.60;;;;;;5020100;28;20033;-65
2023/02/16 00:09:09;;;;;;;1.73;1.20;;;21.00;47.60;;;;;;5015675;28;20022;-64
2023/02/16 00:14:25;;;;;;;2.25;1.40;;;21.00;47.70;;;;;;5018082;28;20056;-66
2023/02/16 00:16:52;;;;;;;2.50;1.50;;;21.00;47.70;;;;;;5019046;28;20040;-64
2023/02/16 00:19:26;;;;;;;1.95;1.27;;;21.00;47.70;;;;;;5020798;28;20025;-65
2023/02/16 00:21:57;;;;;;;2.83;1.30;;;21.00;47.60;;;;;;5019049;28;20065;-65
2023/02/16 00:24:25;;;;;;;2.80;1.50;;;21.00;47.70;;;;;;5019970;28;20040;-65
2023/02/16 00:26:51;;;;;;;1.90;1.20;;;20.90;47.60;;;;;;5017655;28;20034;-64
2023/02/16 00:29:19;;;;;;;2.92;1.40;;;20.90;47.60;;;;;;5019081;28;20125;-64
2023/02/16 00:31:44;;;;;;;2.45;1.40;;;20.90;47.60;;;;;;5016283;28;20022;-65
2023/02/16 00:34:24;;;;;;;2.05;1.30;;;20.90;47.60;;;;;;5017538;28;20057;-64
2023/02/16 00:36:49;;;;;;;;;;;20.90;47.70;;;;;;5017896;28;20493;-65
2023/02/16 00:39:15;;;;;;;2.13;1.30;;;20.90;47.60;;;;;;5019791;28;20029;-65
2023/02/16 00:41:49;;;;;;;1.80;1.23;;;20.90;47.70;;;;;;5019023;28;20184;-65
2023/02/16 00:44:18;;;;;;;1.85;1.20;;;20.90;47.70;;;;;;5020644;28;20037;-64
2023/02/16 00:46:45;;;;;;;2.47;1.50;;;20.90;47.70;;;;;;5021764;28;20053;-64
2023/02/16 00:49:15;;;;;;;1.40;1.10;;;20.80;47.60;;;;;;5023141;28;20028;-65
2023/02/16 00:51:42;;;;;;;2.22;1.30;;;20.80;47.70;;;;;;5022251;28;20044;-64
2023/02/16 00:54:07;;;;;;;1.60;1.10;;;20.80;47.70;;;;;;5022011;28;21151;-64
2023/02/16 00:56:33;;;;;;;1.90;1.20;;;20.80;47.70;;;;;;5023719;28;20113;-65
2023/02/16 00:59:01;;;;;;;1.33;1.10;;;20.80;47.70;;;;;;5021081;28;20515;-65
2023/02/16 01:01:29;;;;;;;1.85;1.20;;;20.80;47.70;;;;;;5021814;28;20025;-65
2023/02/16 01:03:57;;;;;;;1.70;1.15;;;20.80;47.70;;;;;;5020895;28;20034;-64
2023/02/16 01:12:04;;;;;;;1.90;1.30;;;20.80;47.80;;;;;;5022427;28;20646;-64
2023/02/16 01:14:31;;;;;;;1.87;1.27;;;20.70;47.70;;;;;;5019564;28;20163;-64
2023/02/16 01:16:57;;;;;;;1.60;1.20;;;20.70;47.80;;;;;;5021339;28;20108;-64
2023/02/16 01:19:23;;;;;;;1.70;1.17;;;20.70;47.80;;;;;;5019638;28;20861;-65
2023/02/16 01:21:49;;;;;;;3.35;1.40;;;20.70;47.80;;;;;;5020082;28;20120;-65
2023/02/16 01:24:14;;;;;;;1.88;1.20;;;20.70;48.30;;;;;;5023209;28;20026;-65
2023/02/16 01:26:46;;;;;;;1.77;1.30;;;20.70;47.80;;;;;;5020199;28;20469;-64
2023/02/16 01:29:19;;;;;;;2.22;1.40;;;20.70;47.80;;;;;;5021426;28;20017;-65
2023/02/16 01:31:45;;;;;;;1.67;1.20;;;20.70;47.80;;;;;;5020906;28;20501;-65
2023/02/16 01:34:11;;;;;;;1.80;1.38;;;20.70;47.80;;;;;;5021696;28;20059;-64
2023/02/16 01:36:40;;;;;;;1.65;1.25;;;20.60;47.80;;;;;;5023277;28;20055;-65
2023/02/16 01:39:06;;;;;;;1.85;1.27;;;20.60;47.80;;;;;;5021919;28;20029;-64
2023/02/16 01:41:53;;;;;;;1.67;1.27;;;20.60;47.80;;;;;;5020283;28;20030;-64
2023/02/16 01:44:26;;;;;;;1.58;1.20;;;20.60;47.80;;;;;;5019581;28;20032;-64
2023/02/16 01:47:09;;;;;;;1.77;1.20;;;20.60;47.80;;;;;;5018859;28;20492;-64
2023/02/16 01:49:35;;;;;;;1.63;1.30;;;20.60;47.80;;;;;;5022314;28;20025;-64
2023/02/16 01:52:19;;;;;;;1.63;1.30;;;20.60;47.80;;;;;;5021092;28;20033;-64
2023/02/16 01:54:52;;;;;;;1.75;1.27;;;20.60;47.90;;;;;;5019930;28;20091;-64
2023/02/16 01:57:47;;;;;;;1.70;1.15;;;20.60;47.90;;;;;;5019843;28;20072;-64
2023/02/16 02:00:21;;;;;;;1.75;1.10;;;20.50;47.80;;;;;;5019634;28;20025;-64
2023/02/16 02:02:51;;;;;;;1.65;1.05;;;20.50;47.90;;;;;;5021379;28;20041;-66
2023/02/16 02:05:36;;;;;;;2.00;1.30;;;20.50;47.90;;;;;;5022369;28;20500;-64
2023/02/16 02:08:32;;;;;;;1.50;1.10;;;20.50;48.00;;;;;;5020313;28;20033;-64
2023/02/16 02:11:25;;;;;;;1.65;1.23;;;20.50;47.90;;;;;;5018641;28;20500;-64
2023/02/16 02:14:12;;;;;;;2.33;1.30;;;20.50;47.90;;;;;;5022550;28;20099;-64
2023/02/16 02:16:38;;;;;;;1.55;1.10;;;20.50;48.00;;;;;;5020756;28;20173;-64
2023/02/16 02:19:03;;;;;;;1.60;1.17;;;20.50;48.00;;;;;;5020249;28;20099;-64
2023/02/16 02:25:00;;;;;;;1.80;1.30;;;20.50;48.00;;;;;;5022000;28;20111;-64
2023/02/16 02:27:32;;;;;;;1.35;1.15;;;20.50;48.00;;;;;;4978458;28;20030;-64
2023/02/16 02:30:36;;;;;;;1.98;1.25;;;20.40;47.90;;;;;;5027496;28;20041;-65
2023/02/16 02:33:18;;;;;;;1.33;1.20;;;20.40;47.90;;;;;;5012045;28;20045;-64
2023/02/16 02:35:52;;;;;;;2.33;1.48;;;20.40;47.90;;;;;;5019019;28;20025;-65
2023/02/16 02:38:32;;;;;;;1.67;1.27;;;20.40;47.90;;;;;;5021083;28;20038;-65
2023/02/16 02:41:08;;;;;;;1.90;1.27;;;20.40;48.40;;;;;;5023578;28;20043;-66
2023/02/16 02:43:47;;;;;;;1.90;1.20;;;20.40;48.40;;;;;;5017181;28;20026;-65
2023/02/16 02:46:24;;;;;;;1.52;1.20;;;20.40;47.90;;;;;;5021238;28;20072;-65
2023/02/16 02:48:50;;;;;;;1.58;1.13;;;20.40;48.00;;;;;;5021492;28;20484;-66
2023/02/16 02:51:29;;;;;;;1.45;1.10;;;20.40;48.00;;;;;;5018860;28;20547;-65
2023/02/16 03:02:31;;;;;;;2.05;1.20;;;20.40;48.10;;;;;;5019725;28;20044;-64
2023/02/16 03:04:59;;;;;;;1.70;1.20;;;20.30;48.50;;;;;;5023187;28;20026;-64
2023/02/16 03:07:45;;;;;;;1.60;1.30;;;20.30;48.50;;;;;;5015403;28;20021;-64
2023/02/16 03:12:59;;;;;;;1.77;1.20;;;20.30;48.00;;;;;;5019060;28;20044;-65
2023/02/16 03:15:27;;;;;;;1.70;1.20;;;20.30;48.00;;;;;;5019467;28;20034;-65
2023/02/16 03:31:42;;;;;;;1.55;1.15;;;20.30;48.10;;;;;;5020163;28;20109;-64
2023/02/16 03:34:08;;;;;;;1.30;1.00;;;20.20;48.10;;;;;;5018505;28;20497;-65
2023/02/16 03:36:37;;;;;;;1.38;1.13;;;20.20;48.10;;;;;;5035897;28;20037;-65
2023/02/16 03:39:04;;;;;;;1.52;1.13;;;20.20;48.10;;;;;;5020546;28;20093;-64
2023/02/16 03:41:37;;;;;;;1.20;1.05;;;20.20;48.10;;;;;;5020280;28;20489;-66
2023/02/16 03:44:03;;;;;;;1.48;1.08;;;20.20;48.10;;;;;;5019960;28;20029;-64
2023/02/16 03:46:30;;;;;;;1.20;1.10;;;20.20;48.10;;;;;;5017561;28;20034;-65
2023/02/16 03:48:55;;;;;;;1.85;1.20;;;20.20;48.10;;;;;;5016288;28;20033;-65
2023/02/16 03:51:21;;;;;;;1.30;1.10;;;20.20;48.20;;;;;;5018814;28;20516;-65
2023/02/16 03:53:47;;;;;;;1.33;1.10;;;20.20;48.20;;;;;;5021382;28;20108;-66
2023/02/16 03:56:12;;;;;;;1.33;1.10;;;20.20;48.20;;;;;;5019306;28;20029;-65
2023/02/16 03:58:38;;;;;;;1.52;1.20;;;20.20;48.20;;;;;;5020008;28;20034;-65
2023/02/16 04:01:03;;;;;;;1.65;1.30;;;20.20;48.20;;;;;;5021270;28;20034;-65
2023/02/16 04:03:29;;;;;;;1.92;1.15;;;20.20;48.20;;;;;;5018184;28;20091;-65
2023/02/16 04:05:55;;;;;;;1.45;1.08;;;20.10;48.20;;;;;;5019992;28;20029;-66
2023/02/16 04:08:21;;;;;;;1.55;1.20;;;20.10;48.20;;;;;;5020937;28;20022;-65
2023/02/16 04:10:47;;;;;;;1.38;1.20;;;20.10;48.20;;;;;;5016762;28;20052;-65
2023/02/16 04:13:12;;;;;;;1.50;1.08;;;20.10;48.20;;;;;;5018467;28;20036;-65
2023/02/16 04:15:38;;;;;;;1.50;1.10;;;20.20;48.30;;;;;;5020662;28;20068;-65
2023/02/16 04:18:04;;;;;;;1.65;1.17;;;20.10;48.20;;;;;;5018674;28;20029;-65
2023/02/16 04:20:31;;;;;;;1.60;1.20;;;20.10;48.30;;;;;;5020902;28;20033;-65
2023/02/16 04:22:57;;;;;;;1.13;1.00;;;20.10;48.30;;;;;;5023832;28;20049;-65
2023/02/16 04:25:23;;;;;;;1.58;1.20;;;20.10;48.30;;;;;;5020688;28;20037;-65
2023/02/16 04:27:50;;;;;;;1.35;1.10;;;20.10;48.30;;;;;;5022634;28;20030;-66
2023/02/16 04:30:19;;;;;;;1.42;1.20;;;20.10;48.30;;;;;;5022502;28;20125;-65
2023/02/16 04:32:44;;;;;;;1.88;1.30;;;20.10;48.30;;;;;;5023255;28;20384;-64
2023/02/16 04:35:11;;;;;;;1.70;1.20;;;20.10;48.30;;;;;;5023217;28;20029;-64
2023/02/16 04:37:37;;;;;;;1.45;1.10;;;20.10;48.30;;;;;;5021033;28;20158;-66
2023/02/16 04:40:04;;;;;;;1.58;1.10;;;20.10;48.30;;;;;;5022516;28;20038;-65
2023/02/16 04:42:30;;;;;;;1.90;1.20;;;20.10;48.30;;;;;;5022072;28;20040;-65
2023/02/16 04:44:55;;;;;;;1.38;1.10;;;20.10;48.30;;;;;;5022727;28;20113;-65
2023/02/16 04:47:24;;;;;;;1.40;1.08;;;20.10;48.30;;;;;;5021255;28;20034;-65
2023/02/16 04:49:50;;;;;;;1.23;1.05;;;20.10;48.40;;;;;;5020757;28;20025;-65
2023/02/16 04:52:16;;;;;;;1.42;1.08;;;20.10;48.40;;;;;;5020560;28;20041;-65
2023/02/16 04:54:42;;;;;;;1.90;1.30;;;20.10;48.40;;;;;;5022211;28;20036;-64
2023/02/16 04:57:09;;;;;;;1.70;1.10;;;20.10;48.40;;;;;;5023067;28;20057;-65
2023/02/16 04:59:35;;;;;;;1.80;1.27;;;20.10;48.40;;;;;;5022353;28;20046;-65
2023/02/16 05:02:01;;;;;;;1.80;1.30;;;20.10;48.40;;;;;;5018370;28;20028;-65
2023/02/16 05:04:26;;;;;;;1.88;1.40;;;20.10;48.40;;;;;;5022860;28;20030;-65
2023/02/16 05:06:52;;;;;;;1.60;1.23;;;20.10;48.40;;;;;;5021294;28;20033;-65
2023/02/16 05:09:18;;;;;;;1.65;1.20;;;20.10;48.40;;;;;;5021210;28;20033;-65
2023/02/16 05:14:42;;;;;;;1.90;1.33;;;20.00;48.30;;;;;;5022186;28;20527;-65
2023/02/16 05:17:08;;;;;;;;;;;20.00;48.40;;;;;;5023241;28;20095;-65
2023/02/16 05:19:34;;;;;;;2.10;1.27;;;20.00;48.50;;;;;;5021390;28;20344;-65
2023/02/16 05:21:59;;;;;;;1.85;1.40;;;20.00;48.50;;;;;;5022576;28;20083;-65
2023/02/16 05:24:25;;;;;;;1.70;1.30;;;20.00;48.60;;;;;;5021878;28;20544;-65
2023/02/16 05:26:51;;;;;;;2.17;1.70;;;20.00;48.70;;;;;;5018984;28;20080;-66
2023/02/16 05:29:16;;;;;;;2.35;1.50;;;20.00;48.80;;;;;;5019530;28;20022;-65
2023/02/16 05:31:42;;;;;;;1.60;1.40;;;19.90;48.80;;;;;;5019986;28;20034;-65
2023/02/16 05:34:08;;;;;;;2.22;1.30;;;19.90;48.80;;;;;;5019302;28;20037;-66
2023/02/16 05:36:34;;;;;;;2.00;1.30;;;19.90;48.90;;;;;;5019885;28;20021;-66
2023/02/16 05:38:59;;;;;;;1.98;1.55;;;19.90;48.80;;;;;;5022956;28;20113;-65
2023/02/16 05:41:25;;;;;;;1.95;1.40;;;19.90;48.90;;;;;;5021312;28;20053;-65
2023/02/16 05:43:58;;;;;;;2.22;1.58;;;20.00;48.90;;;;;;5019693;28;20025;-66
2023/02/16 05:46:25;;;;;;;2.00;1.50;;;20.00;48.90;;;;;;5023533;28;20048;-65
2023/02/16 05:48:51;;;;;;;2.08;1.50;;;20.00;48.90;;;;;;5021347;28;20381;-65
2023/02/16 05:51:17;;;;;;;2.75;1.80;;;19.90;48.80;;;;;;5020826;28;20026;-66
2023/02/16 05:53:43;;;;;;;1.73;1.40;;;20.00;48.90;;;;;;5020510;28;20091;-65
2023/02/16 05:56:09;;;;;;;2.10;1.40;;;20.00;48.90;;;;;;5019732;28;20042;-67
2023/02/16 05:58:36;;;;;;;1.65;1.40;;;20.00;48.90;;;;;;5020319;28;20026;-66
2023/02/16 06:01:01;;;;;;;2.10;1.60;;;19.90;48.90;;;;;;5021571;28;20028;-65
2023/02/16 06:03:27;;;;;;;2.05;1.40;;;19.90;49.10;;;;;;5018965;28;20025;-66
2023/02/16 06:05:58;;;;;;;1.85;1.55;;;19.90;49.70;;;;;;5021246;28;20053;-67
2023/02/16 06:08:24;;;;;;;1.92;1.45;;;19.90;49.20;;;;;;5020348;28;20480;-66
2023/02/16 06:10:51;;;;;;;2.08;1.60;;;19.90;49.30;;;;;;5020413;28;20064;-66
2023/02/16 06:13:18;;;;;;;2.03;1.42;;;19.90;49.40;;;;;;5017897;28;20045;-66
2023/02/16 06:15:44;;;;;;;1.88;1.40;;;19.90;49.40;;;;;;5021236;28;20037;-66
2023/02/16 06:18:10;;;;;;;1.90;1.50;;;19.90;49.30;;;;;;5023829;28;20025;-66
2023/02/16 06:20:37;;;;;;;2.42;1.58;;;19.90;49.40;;;;;;5022382;28;20049;-66
2023/02/16 06:23:04;;;;;;;2.15;1.33;;;19.90;49.40;;;;;;5027124;28;20400;-66
2023/02/16 06:25:29;;;;;;;2.15;1.40;;;19.80;49.80;;;;;;5017384;28;20147;-66
2023/02/16 06:27:55;;;;;;;2.35;1.67;;;19.90;49.30;;;;;;5020270;28;20030;-66
2023/02/16 06:30:22;;;;;;;2.15;1.58;;;19.90;49.40;;;;;;5023117;28;20330;-67
2023/02/16 06:32:48;;;;;;;2.05;1.35;;;19.90;49.30;;;;;;5022909;28;20025;-66
2023/02/16 06:35:13;;;;;;;2.03;1.50;;;19.90;49.30;;;;;;5023818;28;20103;-65
2023/02/16 06:37:39;;;;;;;2.22;1.60;;;19.90;49.30;;;;;;5019019;28;20068;-65
2023/02/16 06:40:06;;;;;;;2.40;1.40;;;19.90;49.30;;;;;;5018158;28;20048;-66
2023/02/16 06:42:32;;;;;;;3.30;1.67;;;19.90;49.30;;;;;;5019829;28;20129;-67
2023/02/16 06:44:57;;;;;;;1.85;1.50;;;19.90;49.40;;;;;;5019060;28;20071;-66
2023/02/16 06:47:23;;;;;;;2.22;1.40;;;19.90;49.40;;;;;;5018680;28;20449;-66
2023/02/16 06:49:48;;;;;;;2.65;1.80;;;19.90;49.30;;;;;;5015711;28;20041;-65
2023/02/16 06:52:14;;;;;;;2.50;1.52;;;19.90;49.30;;;;;;5018200;28;20033;-67
2023/02/16 06:54:39;;;;;;;2.72;1.70;;;19.90;49.70;;;;;;5024211;28;20057;-67
2023/02/16 06:57:05;;;;;;;2.00;1.42;;;19.90;49.60;;;;;;5018500;28;20034;-66
2023/02/16 06:59:31;;;;;;;3.42;1.50;;;19.90;49.60;;;;;;5017797;28;20037;-67
2023/02/16 07:01:56;;;;;;;2.67;1.40;;;19.90;49.60;;;;;;5013009;28;20033;-66
2023/02/16 07:04:22;;;;;;;2.20;1.60;;;19.90;49.60;;;;;;5015563;28;20125;-67
2023/02/16 07:06:48;;;;;;;2.35;1.60;;;19.90;49.60;;;;;;5017872;28;20691;-67
2023/02/16 07:09:13;;;;;;;2.08;1.50;;;19.90;49.60;;;;;;5022067;28;20366;-67
2023/02/16 07:11:39;;;;;;;2.45;1.60;;;19.90;49.50;;;;;;5019941;28;20037;-67
2023/02/16 07:14:04;;;;;;;2.35;1.48;;;19.80;49.50;;;;;;5019917;28;20030;-67
2023/02/16 07:16:30;;;;;;;2.05;1.45;;;19.90;49.50;;;;;;5016241;28;20030;-67
2023/02/16 07:18:56;;;;;;;2.33;1.50;;;19.90;49.60;;;;;;5019777;28;20497;-67
2023/02/16 07:21:21;;;;;;;2.50;1.58;;;19.90;49.50;;;;;;5019716;28;20034;-67
2023/02/16 07:23:47;;;;;;;2.65;1.60;;;19.90;49.50;;;;;;5017838;28;20041;-67
2023/02/16 07:26:12;;;;;;;1.98;1.40;;;19.90;49.50;;;;;;5017290;28;20108;-68
2023/02/16 07:28:38;;;;;;;2.10;1.50;;;19.90;49.50;;;;;;5018287;28;20097;-66
2023/02/16 07:31:10;;;;;;;3.50;1.70;;;19.90;49.60;;;;;;5018913;28;20030;-67
2023/02/16 07:33:36;;;;;;;2.53;1.67;;;19.80;49.50;;;;;;5021304;28;20100;-66
2023/02/16 07:36:02;;;;;;;2.55;1.55;;;19.90;49.60;;;;;;5017948;28;20034;-67
2023/02/16 07:38:29;;;;;;;2.45;1.55;;;19.80;49.50;;;;;;5017666;28;20109;-68
2023/02/16 07:40:56;;;;;;;2.63;1.75;;;19.90;49.60;;;;;;5018066;28;20030;-66
2023/02/16 07:43:23;;;;;;;2.55;1.60;;;19.80;49.50;;;;;;5035420;28;20030;-66
2023/02/16 07:45:48;;;;;;;2.28;1.50;;;19.80;49.50;;;;;;5018987;28;20172;-67
2023/02/16 07:48:14;;;;;;;2.40;1.40;;;19.80;49.50;;;;;;5018952;28;20120;-66
2023/02/16 07:50:40;;;;;;;2.22;1.50;;;19.80;49.60;;;;;;5018018;28;20040;-66
2023/02/16 07:53:06;;;;;;;2.80;1.70;;;19.80;49.60;;;;;;5020933;28;20034;-68
2023/02/16 07:55:32;;;;;;;2.20;1.50;;;19.80;49.60;;;;;;5020896;28;20506;-67
2023/02/16 07:57:58;;;;;;;2.40;1.70;;;19.80;49.60;;;;;;5021609;28;20026;-66
2023/02/16 08:00:25;;;;;;;2.63;1.75;;;19.80;49.60;;;;;;5019601;28;20087;-67
2023/02/16 08:02:51;;;;;;;2.30;1.70;;;19.80;49.70;;;;;;5021588;28;20127;-68
2023/02/16 08:05:17;;;;;;;2.40;1.63;;;19.80;49.60;;;;;;5021467;28;20044;-67
2023/02/16 08:07:43;;;;;;;2.25;1.50;;;19.80;49.70;;;;;;5020470;28;20385;-66
2023/02/16 08:10:09;;;;;;;3.95;1.70;;;19.80;49.80;;;;;;5023170;28;20040;-66
2023/02/16 08:12:36;;;;;;;3.05;1.70;;;19.80;49.80;;;;;;5022814;28;20029;-67
2023/02/16 08:15:02;;;;;;;2.65;1.90;;;19.80;49.90;;;;;;5023218;28;20488;-67
2023/02/16 08:17:27;;;;;;;2.70;1.48;;;19.80;49.80;;;;;;5021074;28;20100;-66
2023/02/16 08:19:53;;;;;;;2.25;1.55;;;19.80;49.80;;;;;;5021078;28;20026;-66
2023/02/16 08:22:19;;;;;;;2.80;1.60;;;19.80;49.90;;;;;;5019699;28;20035;-66
2023/02/16 08:24:44;;;;;;;3.33;1.88;;;19.80;49.80;;;;;;5023928;28;20029;-66
2023/02/16 08:27:10;;;;;;;2.88;1.77;;;19.70;49.90;;;;;;5021872;28;20496;-66
2023/02/16 08:29:35;;;;;;;2.35;1.70;;;19.80;49.90;;;;;;5020294;28;20080;-66
2023/02/16 08:32:06;;;;;;;2.72;1.77;;;19.70;49.80;;;;;;5034731;28;20182;-66
2023/02/16 08:34:33;;;;;;;2.55;1.73;;;19.80;49.90;;;;;;5023647;28;20461;-66
2023/02/16 08:37:00;;;;;;;3.30;1.50;;;19.70;49.90;;;;;;5023027;28;20025;-66
2023/02/16 08:39:29;;;;;;;2.38;1.58;;;19.70;50.40;;;;;;5018066;28;20029;-66
2023/02/16 08:41:55;;;;;;;;;;;19.70;49.90;;;;;;5020441;28;20431;-66
2023/02/16 08:44:22;;;;;;;2.63;1.60;;;19.70;50.00;;;;;;5020495;28;19909;-66
2023/02/16 08:46:49;;;;;;;2.63;1.50;;;19.70;50.40;;;;;;5023150;28;20469;-66
2023/02/16 08:49:17;;;;;;;3.25;1.60;;;19.70;49.90;;;;;;5019667;28;20079;-66
2023/02/16 08:51:50;;;;;;;2.35;1.58;;;19.70;50.00;;;;;;5023360;28;20507;-66
2023/02/16 08:54:20;;;;;;;2.55;1.73;;;19.70;50.00;;;;;;5020423;28;20025;-66
2023/02/16 08:56:48;;;;;;;2.50;1.52;;;19.70;50.00;;;;;;5022841;28;20030;-66
2023/02/16 08:59:15;;;;;;;2.38;1.70;;;19.70;50.00;;;;;;5020635;28;20578;-66
2023/02/16 09:01:41;;;;;;;3.28;1.50;;;19.70;50.00;;;;;;5022820;28;20032;-66
2023/02/16 09:04:07;;;;;;;2.55;1.73;;;19.70;50.00;;;;;;5020629;28;20473;-66
2023/02/16 09:06:37;;;;;;;2.75;1.70;;;19.70;50.00;;;;;;5022541;28;20048;-66
2023/02/16 09:09:03;;;;;;;2.50;1.67;;;19.70;50.00;;;;;;5024235;28;20018;-66
2023/02/16 09:11:29;;;;;;;2.60;1.60;;;19.70;50.00;;;;;;5018938;28;20030;-67
2023/02/16 09:13:56;;;;;;;2.47;1.70;;;19.70;50.00;;;;;;5018967;28;20137;-66
2023/02/16 09:16:23;;;;;;;2.50;1.50;;;19.70;50.50;;;;;;5031117;28;20377;-67
2023/02/16 09:18:50;;;;;;;3.85;2.03;;;19.80;50.40;;;;;;5035632;28;20026;-67
2023/02/16 09:21:19;;;;;;;3.17;2.00;;;19.80;50.30;;;;;;5029090;28;20049;-66
2023/02/16 09:23:47;;;;;;;3.70;2.05;;;19.90;50.20;;;;;;5032427;28;20132;-68
2023/02/16 09:26:16;;;;;;;2.83;1.90;;;20.00;50.10;;;;;;5029894;28;20037;-66
2023/02/16 09:28:43;;;;;;;3.00;1.80;;;20.10;50.10;;;;;;5028821;28;20442;-67
2023/02/16 09:31:11;;;;;;;3.45;2.10;;;20.20;50.10;;;;;;5029912;28;20474;-68
2023/02/16 09:33:38;;;;;;;3.60;1.90;;;20.30;50.10;;;;;;5020723;28;20525;-67
2023/02/16 09:36:06;;;;;;;3.75;1.75;;;20.40;50.00;;;;;;5027556;28;20580;-67
2023/02/16 09:38:32;;;;;;;3.35;1.95;;;20.50;50.00;;;;;;5049102;28;20094;-68
2023/02/16 09:41:04;;;;;;;4.32;2.00;;;20.60;49.80;;;;;;5032769;28;20053;-66
2023/02/16 09:43:29;;;;;;;3.05;1.80;;;20.70;49.60;;;;;;5022258;28;20045;-67
2023/02/16 09:45:57;;;;;;;3.10;1.92;;;20.80;49.50;;;;;;5031974;28;20319;-67
2023/02/16 09:48:55;;;;;;;4.35;2.00;;;20.90;49.20;;;;;;5018168;28;20080;-66
2023/02/16 09:51:27;;;;;;;2.42;1.70;;;21.00;49.00;;;;;;4998798;28;20045;-67
2023/02/16 09:54:21;;;;;;;2.95;1.80;;;21.20;48.90;;;;;;5028919;28;20014;-67
2023/02/16 09:57:22;;;;;;;2.70;1.67;;;21.30;48.70;;;;;;5033678;28;20022;-67
2023/02/16 10:00:17;;;;;;;3.22;1.88;;;21.50;48.40;;;;;;5017093;28;20034;-67
2023/02/16 10:02:53;;;;;;;3.63;2.10;;;21.60;48.20;;;;;;5029566;28;20025;-67
2023/02/16 10:05:28;;;;;;;3.05;2.05;;;21.70;47.90;;;;;;5023429;28;20025;-68
2023/02/16 10:07:57;;;;;;;4.43;2.30;;;21.80;47.80;;;;;;5021577;28;20022;-68
2023/02/16 10:10:34;;;;;;;2.50;1.67;;;22.00;47.50;;;;;;5021189;28;20389;-67
2023/02/16 10:13:06;;;;;;;3.40;1.95;;;22.10;47.30;;;;;;5023392;28;20335;-66
2023/02/16 10:15:33;;;;;;;4.15;2.20;;;22.20;47.10;;;;;;5019672;28;20025;-67
2023/02/16 10:18:32;;;;;;;4.63;2.00;;;22.30;47.00;;;;;;5016395;28;20041;-67
2023/02/16 10:21:02;;;;;;;3.50;2.10;;;22.40;46.80;;;;;;5014032;28;20042;-66
2023/02/16 10:23:37;;;;;;;2.90;1.90;;;22.50;46.50;;;;;;5018586;28;20485;-66
2023/02/16 10:26:12;;;;;;;2.85;1.95;;;22.60;46.40;;;;;;5019815;28;20022;-67
2023/02/16 10:28:45;;;;;;;3.80;2.30;;;22.70;46.20;;;;;;5018695;28;20026;-67
2023/02/16 10:31:25;;;;;;;3.28;2.17;;;22.70;46.00;;;;;;5018883;28;20385;-67
2023/02/16 10:34:02;;;;;;;3.08;2.00;;;22.80;45.50;;;;;;5018155;28;20159;-67
2023/02/16 10:37:12;;;;;;;4.38;2.10;;;22.90;45.60;;;;;;5021694;28;20025;-66
2023/02/16 10:40:11;;;;;;;4.68;2.33;;;23.00;45.40;;;;;;5016549;28;20042;-67
2023/02/16 10:42:37;;;;;;;;;;;23.00;45.30;;;;;;5019402;28;20029;-68
2023/02/16 10:45:38;;;;;;;3.38;2.00;;;23.00;45.20;;;;;;5019760;28;19909;-67
2023/02/16 10:48:04;;;;;;;4.35;2.20;;;23.00;45.10;;;;;;5014527;28;20045;-66
2023/02/16 10:50:57;;;;;;;2.55;1.73;;;23.00;45.00;;;;;;5016871;28;20029;-66
2023/02/16 10:53:43;;;;;;;3.47;2.20;;;23.10;44.90;;;;;;5016852;28;20076;-66
2023/02/16 10:56:42;;;;;;;3.50;1.88;;;23.10;44.90;;;;;;5019327;28;20036;-67
2023/02/16 10:59:21;;;;;;;3.10;2.10;;;23.10;44.90;;;;;;5019412;28;20446;-66
2023/02/16 11:01:53;;;;;;;3.00;2.08;;;23.10;44.80;;;;;;5021329;28;20030;-67
2023/02/16 11:04:42;;;;;;;3.38;1.90;;;23.10;44.80;;;;;;5018999;28;20030;-67
2023/02/16 11:07:12;;;;;;;3.72;2.00;;;23.10;44.80;;;;;;5020586;28;20066;-67
2023/02/16 11:09:39;;;;;;;3.28;2.22;;;23.10;44.80;;;;;;5020178;28;20032;-66
2023/02/16 11:12:27;;;;;;;3.58;2.20;;;23.10;44.80;;;;;;5022076;28;20377;-66
2023/02/16 11:15:02;;;;;;;3.92;2.30;;;23.10;44.90;;;;;;5019947;28;20029;-66
2023/02/16 11:17:29;;;;;;;3.15;2.15;;;23.10;44.80;;;;;;5019234;28;20034;-66
2023/02/16 11:20:31;;;;;;;2.90;2.10;;;23.10;44.80;;;;;;5018937;28;20029;-65
2023/02/16 11:23:26;;;;;;;2.97;2.03;;;23.10;44.80;;;;;;5003616;28;20043;-67
2023/02/16 11:26:01;;;;;;;3.28;1.90;;;23.10;44.70;;;;;;5016015;28;20405;-66
2023/02/16 11:28:32;;;;;;;2.92;2.00;;;23.10;44.90;;;;;;5019473;28;20018;-66
2023/02/16 11:31:18;;;;;;;3.75;2.08;;;23.10;44.90;;;;;;5020261;28;20101;-66
2023/02/16 11:34:19;;;;;;;3.47;2.05;;;23.10;44.90;;;;;;5019088;28;20449;-67
2023/02/16 11:36:46;;;;;;;2.95;2.05;;;23.10;44.90;;;;;;5011323;28;20477;-67
2023/02/16 11:39:23;;;;;;;2.97;2.20;;;23.10;44.90;;;;;;5019430;28;20026;-67
2023/02/16 11:41:56;;;;;;;2.67;2.05;;;23.10;45.50;;;;;;5017132;28;20049;-66
2023/02/16 11:44:45;;;;;;;2.90;1.95;;;23.10;45.00;;;;;;5019311;28;20029;-67
2023/02/16 11:47:24;;;;;;;2.80;2.00;;;23.10;45.00;;;;;;5019433;28;20084;-67
2023/02/16 11:50:07;;;;;;;3.20;2.08;;;23.00;45.00;;;;;;5018614;28;20030;-66
2023/02/16 11:52:33;;;;;;;2.63;1.80;;;23.00;45.10;;;;;;5018362;28;20504;-67
2023/02/16 11:55:00;;;;;;;3.10;2.00;;;23.00;45.10;;;;;;5014399;28;20034;-66
2023/02/16 11:57:32;;;;;;;2.92;2.00;;;23.00;45.10;;;;;;5020906;28;20158;-66
2023/02/16 12:00:03;;;;;;;3.05;2.00;;;23.00;45.10;;;;;;5019854;28;20022;-66
2023/02/16 12:02:57;;;;;;;2.90;1.88;;;23.00;45.20;;;;;;5020301;28;20500;-67
2023/02/16 12:05:34;;;;;;;3.30;2.00;;;23.00;45.20;;;;;;5019330;28;20108;-66
2023/02/16 12:08:21;;;;;;;2.30;1.77;;;23.00;45.20;;;;;;5015950;28;20542;-66
2023/02/16 12:11:10;;;;;;;3.00;1.95;;;23.00;45.30;;;;;;5019545;28;20028;-66
2023/02/16 12:13:57;;;;;;;2.70;1.90;;;23.10;45.50;;;;;;5007959;28;20037;-65
2023/02/16 12:16:30;;;;;;;2.30;1.70;;;23.00;45.50;;;;;;5017524;28;20051;-66
2023/02/16 12:19:26;;;;;;;2.67;1.60;;;23.00;45.50;;;;;;5018875;28;20480;-65
2023/02/16 12:22:16;;;;;;;2.65;1.75;;;23.00;45.50;;;;;;5018125;28;20026;-67
2023/02/16 12:25:03;;;;;;;2.03;1.40;;;23.00;45.60;;;;;;5019928;28;20033;-66
2023/02/16 12:27:53;;;;;;;2.50;1.70;;;23.00;45.70;;;;;;5020756;28;20160;-65
2023/02/16 12:30:47;;;;;;;2.60;1.80;;;23.00;45.70;;;;;;5018102;28;20034;-66
2023/02/16 12:33:37;;;;;;;2.38;1.70;;;23.00;45.70;;;;;;5019143;28;20025;-66
2023/02/16 12:36:11;;;;;;;2.80;1.48;;;23.00;45.80;;;;;;5019753;28;20122;-67
2023/02/16 12:38:45;;;;;;;2.28;1.70;;;23.00;45.80;;;;;;5021104;28;20478;-66
2023/02/16 12:41:21;;;;;;;3.83;1.80;;;23.00;45.90;;;;;;5021885;28;20026;-66
2023/02/16 12:43:57;;;;;;;2.80;1.50;;;23.00;45.90;;;;;;5024148;28;20026;-67
2023/02/16 12:46:36;;;;;;;3.25;1.98;;;23.00;45.90;;;;;;5022469;28;20022;-66
2023/02/16 12:49:12;;;;;;;2.10;1.50;;;23.00;46.00;;;;;;5022773;28;20088;-66
2023/02/16 12:51:45;;;;;;;2.55;1.60;;;23.00;46.00;;;;;;5019558;28;20064;-67
2023/02/16 12:54:24;;;;;;;3.55;1.65;;;22.90;46.00;;;;;;5019525;28;20038;-67
2023/02/16 12:57:00;;;;;;;2.10;1.50;;;23.00;46.00;;;;;;5023309;28;20026;-68
2023/02/16 12:59:43;;;;;;;3.08;1.40;;;23.00;46.00;;;;;;5024369;28;20336;-68
2023/02/16 13:02:18;;;;;;;2.80;1.60;;;23.00;46.10;;;;;;5019073;28;20037;-66
2023/02/16 13:04:55;;;;;;;2.85;1.75;;;23.00;46.20;;;;;;5020312;28;20029;-66
2023/02/16 13:07:41;;;;;;;2.15;1.30;;;23.00;46.20;;;;;;5022631;28;20029;-67
2023/02/16 13:10:17;;;;;;;2.40;1.50;;;23.00;46.30;;;;;;5022724;28;20503;-66
2023/02/16 13:13:05;;;;;;;2.20;1.50;;;23.00;46.40;;;;;;5019768;28;20029;-66
2023/02/16 13:15:39;;;;;;;2.85;1.40;;;23.00;46.40;;;;;;5021363;28;20026;-67
2023/02/16 13:18:32;;;;;;;2.40;1.40;;;23.00;46.50;;;;;;5021034;28;20117;-67
2023/02/16 13:21:08;;;;;;;2.60;1.60;;;23.00;46.50;;;;;;5020060;28;20056;-67
2023/02/16 13:23:33;;;;;;;1.73;1.20;;;23.00;46.50;;;;;;5023596;28;20041;-67
2023/02/16 13:26:29;;;;;;;2.30;1.30;;;23.00;46.50;;;;;;5024895;28;20042;-67
2023/02/16 13:29:13;;;;;;;2.70;1.40;;;23.00;46.60;;;;;;5024338;28;20024;-66
2023/02/16 13:32:00;;;;;;;3.20;1.30;;;23.00;46.60;;;;;;5022528;28;20627;-67
2023/02/16 13:34:47;;;;;;;2.00;1.30;;;23.10;46.70;;;;;;5021552;28;20079;-67
2023/02/16 13:37:25;;;;;;;2.00;1.30;;;23.10;46.80;;;;;;5021755;28;20409;-67
2023/02/16 13:40:18;;;;;;;2.47;1.40;;;23.10;46.80;;;;;;5020534;28;20041;-67
2023/02/16 13:43:01;;;;;;;1.98;1.30;;;23.10;46.80;;;;;;5020031;28;20044;-67
2023/02/16 13:45:31;;;;;;;1.60;1.30;;;23.10;46.80;;;;;;5019883;28;20499;-67
2023/02/16 13:47:58;;;;;;;2.40;1.50;;;23.10;46.80;;;;;;5020875;28;20041;-67
2023/02/16 13:50:26;;;;;;;1.80;1.33;;;23.10;46.90;;;;;;5019352;28;20021;-67
2023/02/16 13:52:55;;;;;;;1.70;1.40;;;23.10;47.00;;;;;;5021332;28;20037;-67